首页
METAR-TAF:

METAR-TAF

机场 :

敖德薩國際機場

敖德薩, 乌克兰

纬度: 46-26N, 经度: 030-46E, 海拔: 42米

当前天气观测

该预报发布于16分钟前的02:00 UTC
风速8节,风向西北,在西转西北之间变化
温度 19°C
湿度 88%
气压 1008 hPa
能见度10公里或以上
散云层高于1100英尺

METAR: UKOO 230200Z 32004MPS 300V360 9999 SCT011 19/17 Q1008 R34/090060 NOSIG

时间: 05:16 (02:16 UTC)

预报

该预报发布于3小时和7分钟前的23:09 UTC
预报有效从23日的 00点(UTC)到 23日的 24点(UTC)
风速10节,风向西北
能見度: 6000
散云层高于1000英尺
散云层高于2000英尺, 积雨云.
短暂存在
从 23日的 00点(UTC)到 23日的 09点(UTC)
风速16节,风向,有时为27节阵风
几率 40% :
短暂存在
从 23日的 00点(UTC)到 23日的 09点(UTC)
能見度: 2100
雷暴, 小雨
成为
从 23日的 09点(UTC)到 23日的 10点(UTC)
风速16节,风向西北,有时为27节阵风
几率 40% :
短暂存在
从 23日的 10点(UTC)到 23日的 17点(UTC)
能見度: 2100
雷暴, 小雨

TAF: UKOO 222309Z 2300/2324 32005MPS 6000 SCT010 SCT020CB TEMPO 2300/2309 36008G14MPS PROB40 TEMPO 2300/2309 2100 -TSRA BECMG 2309/2310 32008G14MPS PROB40 TEMPO 2310/2317 2100 -TSRA

超过4000个机场的气象观测和天气预报(METAR&TAF报告)。

可查询的气象台以黄色和红色小点在地图上表示。

将鼠标移到小点上方,可查看气象台名称。

然后点击查看天气观测和预报。

如需切换地图:点击带黑十字的绿色按钮放大地图;点击带横线的绿色按钮缩小地图;或者点击绿色箭头查看邻近地区的地图。


METAR-TAF: